Waterville, Iowa
Current Conditions -  °F | °C
As of 1:15 PM on Tuesday 21 Oct 2014 (Local Time) from KPDC Reporting Station
Clear Clear  
Wind Chill: 54°   Ceiling: Unl
Heat Index: 54°   Visibility: 10mi
Dew Point: 36°   Wind: 8mph
Humidity: 49%   Direction: 80°E
Pressure: 30.2"   Gusts: NA
Location:  43.21°N, 91.3°W
Report Text: KPDC 211815Z AUTO 08007KT 10SM CLR 12/02 A3020 RMK AO2 T01240020
Loading
Personal Weather Stations






























Interactive Weather Map
Tropical Storm Tracking
New forecast layout! Learn more

10-Day Weather Forecast

Advertisements
Track Severe Weather on mobile